Airport View

Enter AWOS ICAO identifier for current METAR.

ex. KFNL

KLNL 191255Z AUTO 06007KT 1 1/2SM -SN BKN008 OVC014 04/04 A2981 RMK AO2 P0028 T00360036

19 May 2019 12:56

Frequency: 119.525

Phone: 715-547-6313

Other Area AWOS: KEGV - KARV - KD25 - KRHI

TAF KRHI 191140Z 1912/2012 05013G19KT 3SM SHRA BR OVC007 FM200000 01012G19KT 4SM -SHRA BR OVC007 FM200400 34011G16KT 6SM -SHRA BR OVC006 FM200900 32010G15KT P6SM BKN010